Nearby METAR Reports



KADS - Dallas/Addison, Texas, USA
Distance from station: SSW 10mi, 16km
Updated: Sun, 20-Jun-2021 1:35am CDT
Clear
Clear
 Wind from S
Wind: S 6 mph , 9 km/h
Temperature: 82°F , 28°C
Heat Index: 84°F , 29°C
Dew Point: 64°F , 18°C
Humidity: 55%
Barometer: 29.84 inHg , 1010.5 hPa
Clouds: Clear
Visibility: 10 miles , 16 km
2021/06/20 06:35 KADS 200635Z AUTO 18005KT 10SM CLR 28/18 A2984 RMK AO2 T02800182
KTKI - Mckinney, Texas, USA
Distance from station: ENE 11mi, 18km
Updated: Sun, 20-Jun-2021 1:53am CDT
Clear
Clear
 Wind from SSE
Wind: SSE 5 mph , 7 km/h
Temperature: 75°F , 24°C
Dew Point: 66°F , 19°C
Humidity: 74%
Barometer: 29.83 inHg , 1010.2 hPa
Clouds: Clear
Visibility: 10 miles , 16 km
2021/06/20 06:53 KTKI 200653Z AUTO 16004KT 10SM CLR 24/19 A2983 RMK AO2 SLP094 T02440189
 
KDAL - Dallas/Love Fld, Texas, USA
Distance from station: SSW 18mi, 30km
Updated: Sun, 20-Jun-2021 1:53am CDT
Clear
Clear
 Wind from S
Wind: S 10 mph , 17 km/h
Temperature: 82°F , 28°C
Heat Index: 84°F , 29°C
Dew Point: 66°F , 19°C
Humidity: 58%
Barometer: 29.82 inHg , 1009.8 hPa
Clouds: Clear
Visibility: 10 miles , 16 km
2021/06/20 06:53 KDAL 200653Z 18009KT 10SM CLR 28/19 A2982 RMK AO2 SLP088 T02830189
KDFW - Dallas/Ft Worth, Texas, USA
Distance from station: SW 21mi, 34km
Updated: Sun, 20-Jun-2021 1:53am CDT
Clear
Clear
 Wind from S
Wind: S 14 mph , 22 km/h
Temperature: 82°F , 28°C
Heat Index: 84°F , 29°C
Dew Point: 66°F , 19°C
Humidity: 58%
Barometer: 29.80 inHg , 1009.1 hPa
Clouds: Clear
Visibility: 10 miles , 16 km
2021/06/20 06:53 KDFW 200653Z 18012KT 10SM CLR 28/19 A2980 RMK AO2 SLP081 T02780189
 
KF46 - Rockwall, Texas, USA
Distance from station: ESE 22mi, 35km
Updated: Sun, 20-Jun-2021 1:35am CDT
Clear
Clear
 Wind from S
Wind: S 6 mph , 9 km/h
Temperature: 77°F , 25°C
Dew Point: 66°F , 19°C
Humidity: 69%
Barometer: 29.84 inHg , 1010.5 hPa
Clouds: Clear
Visibility: 10 miles , 16 km
2021/06/20 06:35 KF46 200635Z AUTO 18005KT 10SM CLR 25/19 A2984 RMK AO2 T02530188
KDTO - Denton, Texas, USA
Distance from station: WNW 27mi, 43km
Updated: Sun, 20-Jun-2021 1:53am CDT
Clear
Clear
 Wind from SSE
Wind: SSE 10 mph , 17 km/h
Temperature: 79°F , 26°C
Dew Point: 66°F , 19°C
Humidity: 65%
Barometer: 29.81 inHg , 1009.5 hPa
Clouds: Clear
Visibility: 10 miles , 16 km
2021/06/20 06:53 KDTO 200653Z AUTO 16009KT 10SM CLR 26/19 A2981 RMK AO2 SLP085 T02560194
 
KHQZ - Mesquite, Texas, USA
Distance from station: SSE 28mi, 44km
Updated: Sun, 20-Jun-2021 1:35am CDT
Clear
Clear
 Wind from calm
Wind: Calm
Temperature: 75°F , 24°C
Dew Point: 68°F , 20°C
Humidity: 78%
Barometer: 29.84 inHg , 1010.5 hPa
Clouds: Clear
2021/06/20 06:35 KHQZ 200635Z AUTO 00000KT CLR 24/20 A2984 RMK AO1 T02370197
KRBD - Dallas/Redbird, Texas, USA
Distance from station: SSW 30mi, 48km
Updated: Sun, 20-Jun-2021 1:53am CDT
Clear
Clear
 Wind from S
Wind: S 8 mph , 13 km/h
Temperature: 81°F , 27°C
Heat Index: 83°F , 28°C
Dew Point: 66°F , 19°C
Humidity: 62%
Barometer: 29.82 inHg , 1009.8 hPa
Clouds: Clear
Visibility: 10 miles , 16 km
2021/06/20 06:53 KRBD 200653Z AUTO 19007KT 10SM CLR 27/19 A2982 RMK AO2 SLP088 T02670189
 
KGPM - Grand Prairie, Texas, USA
Distance from station: SSW 33mi, 53km
Updated: Sun, 20-Jun-2021 1:35am CDT
Clear
Clear
 Wind from S
Wind: S 7 mph , 11 km/h
Temperature: 81°F , 27°C
Heat Index: 83°F , 28°C
Dew Point: 64°F , 18°C
Humidity: 58%
Barometer: 29.84 inHg , 1010.5 hPa
Clouds: Clear
Visibility: 10 miles , 16 km
2021/06/20 06:35 KGPM 200635Z AUTO 18006KT 10SM CLR 27/18 A2984 RMK AO2 T02680182
KAFW - Ft Worth/Allianc, Texas, USA
Distance from station: WSW 34mi, 55km
Updated: Sun, 20-Jun-2021 1:53am CDT
Clear
Clear
 Wind from S
Wind: S 10 mph , 17 km/h
Temperature: 81°F , 27°C
Heat Index: 83°F , 28°C
Dew Point: 66°F , 19°C
Humidity: 62%
Barometer: 29.81 inHg , 1009.5 hPa
Clouds: Clear
Visibility: 10 miles , 16 km
2021/06/20 06:53 KAFW 200653Z 18009KT 10SM CLR 27/19 A2981 RMK AO2 SLP076 T02670189
 
KLNC - Lancaster, Texas, USA
Distance from station: S 36mi, 58km
Updated: Sun, 20-Jun-2021 1:35am CDT
Clear
Clear
 Wind from calm
Wind: Calm
Temperature: 75°F , 24°C
Dew Point: 66°F , 19°C
Humidity: 74%
Barometer: 29.84 inHg , 1010.5 hPa
Clouds: Clear
Visibility: 10 miles , 16 km
2021/06/20 06:35 KLNC 200635Z AUTO 00000KT 10SM CLR 24/19 A2984 RMK AO2 T02390187
KGKY - Arlington, Texas, USA
Distance from station: SSW 36mi, 59km
Updated: Sun, 20-Jun-2021 1:53am CDT
Clear
Clear
 Wind from SSE
Wind: SSE 5 mph , 7 km/h
Temperature: 81°F , 27°C
Heat Index: 83°F , 28°C
Dew Point: 66°F , 19°C
Humidity: 62%
Barometer: 29.83 inHg , 1010.2 hPa
Clouds: Clear
Visibility: 10 miles , 16 km
2021/06/20 06:53 KGKY 200653Z AUTO 16004KT 10SM CLR 27/19 A2983 RMK AO2 SLP088 T02670194
 
KTRL - Terrell, Texas, USA
Distance from station: SE 39mi, 63km
Updated: Sun, 20-Jun-2021 1:53am CDT
Clear
Clear
 Wind from calm
Wind: Calm
Temperature: 73°F , 23°C
Dew Point: 70°F , 21°C
Humidity: 89%
Barometer: 29.84 inHg , 1010.5 hPa
Clouds: Clear
Visibility: 9 miles , 14 km
2021/06/20 06:53 KTRL 200653Z AUTO 00000KT 9SM CLR 23/21 A2984 RMK AO2 SLP096 T02280206
KGVT - Greenville/Major, Texas, USA
Distance from station: E 40mi, 64km
Updated: Sun, 20-Jun-2021 1:30am CDT
Clear
Clear
 Wind from S
Wind: S 5 mph , 7 km/h
Temperature: 73°F , 23°C
Dew Point: 68°F , 20°C
Humidity: 83%
Barometer: 29.84 inHg , 1010.5 hPa
Clouds: Clear
Visibility: 10 miles , 16 km
2021/06/20 06:30 KGVT 200630Z AUTO 17004KT 10SM CLR 23/20 A2984 RMK AO2 TSNO T02290200
 
KFTW - Fort Worth, Texas, USA
Distance from station: WSW 40mi, 65km
Updated: Sun, 20-Jun-2021 1:53am CDT
Clear
Clear
 Wind from S
Wind: S 12 mph , 19 km/h
Temperature: 79°F , 26°C
Dew Point: 66°F , 19°C
Humidity: 65%
Barometer: 29.81 inHg , 1009.5 hPa
Clouds: Clear
Visibility: 10 miles , 16 km
2021/06/20 06:53 KFTW 200653Z 17010KT 10SM CLR 26/19 A2981 RMK AO2 SLP083 T02610194
KGYI - Sherman/Denison, Texas, USA
Distance from station: N 43mi, 69km
Updated: Sun, 20-Jun-2021 1:35am CDT
Clear
Clear
 Wind from SSE
Wind: SSE 9 mph , 15 km/h
Temperature: 77°F , 25°C
Dew Point: 64°F , 18°C
Humidity: 65%
Barometer: 29.84 inHg , 1010.5 hPa
Clouds: Clear
Visibility: 10 miles , 16 km
2021/06/20 06:35 KGYI 200635Z AUTO 16008KT 10SM CLR 25/18 A2984 RMK AO2 T02490183
 
KNFW - Fort Worth Nas, Texas, USA
Distance from station: WSW 45mi, 73km
Updated: Sun, 20-Jun-2021 1:52am CDT
Clear
Clear
 Wind from S
Wind: S 13 mph , 20 km/h
Temperature: 81°F , 27°C
Heat Index: 84°F , 29°C
Dew Point: 68°F , 20°C
Humidity: 66%
Barometer: 29.81 inHg , 1009.5 hPa
Clouds: Clear
Visibility: 10 miles , 16 km
2021/06/20 06:52 KNFW 200652Z AUTO 17011KT 10SM CLR 27/20 A2981 RMK AO2 SLP080 T02670200 TSNO VISNO S $
KGLE - Gainesville, Texas, USA
Distance from station: NW 46mi, 74km
Updated: Sun, 20-Jun-2021 1:35am CDT
Clear
Clear
 Wind from S
Wind: S 5 mph , 7 km/h
Temperature: 72°F , 22°C
Dew Point: 64°F , 18°C
Humidity: 78%
Barometer: 29.84 inHg , 1010.5 hPa
Clouds: Clear
Visibility: 10 miles , 16 km
2021/06/20 06:35 KGLE 200635Z AUTO 18004KT 10SM CLR 22/18 A2984 RMK AO2 T02210175
 
KJWY - Midlothian/Wax, Texas, USA
Distance from station: SSW 46mi, 74km
Updated: Sun, 20-Jun-2021 1:35am CDT
Clear
Clear
 Wind from S
Wind: S 6 mph , 9 km/h
Temperature: 75°F , 24°C
Dew Point: 68°F , 20°C
Humidity: 78%
Barometer: 29.85 inHg , 1010.8 hPa
Clouds: Clear
Visibility: 10 miles , 16 km
2021/06/20 06:35 KJWY 200635Z AUTO 18005KT 10SM CLR 24/20 A2985 RMK AO2 T02420199
KFWS - Fort Worth/88d, Texas, USA
Distance from station: SW 49mi, 79km
Updated: Sun, 20-Jun-2021 1:35am CDT
Clear
Clear
 Wind from S
Wind: S 6 mph , 9 km/h
Temperature: 77°F , 25°C
Dew Point: 66°F , 19°C
Humidity: 69%
Barometer: 29.85 inHg , 1010.8 hPa
Clouds: Clear
Visibility: 10 miles , 16 km
2021/06/20 06:35 KFWS 200635Z AUTO 18005KT 10SM CLR 25/19 A2985 RMK AO2 T02480195